createdAt,value
2018-08-04T00:03:53.349Z,65.40
2018-08-04T00:06:22.674Z,65.60
2018-08-04T00:08:51.745Z,65.40
2018-08-04T00:11:20.943Z,64.80
2018-08-04T00:13:50.135Z,64.90
2018-08-04T00:16:19.386Z,65.00
2018-08-04T00:18:48.652Z,64.90
2018-08-04T00:21:17.861Z,65.00
2018-08-04T00:23:47.053Z,65.00
2018-08-04T00:26:16.229Z,65.00
2018-08-04T00:28:45.477Z,65.00
2018-08-04T00:31:14.677Z,65.00
2018-08-04T00:33:43.676Z,64.40
2018-08-04T00:36:12.858Z,64.00
2018-08-04T00:38:42.107Z,64.20
2018-08-04T00:41:11.344Z,63.90
2018-08-04T00:43:40.654Z,63.50
2018-08-04T00:46:10.185Z,63.60
2018-08-04T00:48:39.316Z,63.80
2018-08-04T00:51:08.783Z,64.50
2018-08-04T00:53:38.112Z,63.70
2018-08-04T00:56:07.511Z,63.80
2018-08-04T00:58:36.781Z,63.70
2018-08-04T01:01:05.916Z,63.90
2018-08-04T01:03:35.221Z,63.90
2018-08-04T01:08:33.269Z,64.60
2018-08-04T01:11:02.410Z,65.00
2018-08-04T01:13:31.571Z,64.70
2018-08-04T01:16:00.908Z,64.60
2018-08-04T01:20:58.808Z,65.00
2018-08-04T01:23:28.002Z,64.70
2018-08-04T01:28:27.169Z,64.70
2018-08-04T01:30:56.306Z,65.00
2018-08-04T01:33:25.631Z,64.80
2018-08-04T01:35:54.955Z,64.90
2018-08-04T01:38:24.236Z,64.90
2018-08-04T01:40:54.271Z,65.20
2018-08-04T01:45:52.885Z,65.60
2018-08-04T01:48:22.010Z,65.50
2018-08-04T01:50:51.345Z,65.60
2018-08-04T01:53:20.475Z,66.00
2018-08-04T02:00:47.018Z,67.10
2018-08-04T02:03:16.240Z,66.60
2018-08-04T02:05:45.474Z,66.90
2018-08-04T02:08:14.554Z,67.10
2018-08-04T02:13:12.417Z,68.00
2018-08-04T02:15:41.723Z,67.30
2018-08-04T02:18:10.857Z,67.50
2018-08-04T02:20:39.951Z,67.80
2018-08-04T02:25:37.943Z,67.50
2018-08-04T02:28:07.144Z,68.20
2018-08-04T02:33:05.051Z,67.70
2018-08-04T02:35:34.265Z,68.40
2018-08-04T02:38:03.747Z,68.60
2018-08-04T02:40:32.960Z,68.60
2018-08-04T02:48:00.048Z,68.50
2018-08-04T02:50:29.189Z,68.70
2018-08-04T02:52:58.566Z,68.60
2018-08-04T02:57:56.638Z,68.60
2018-08-04T03:00:25.856Z,69.10
2018-08-04T03:02:55.171Z,69.40
2018-08-04T03:05:24.377Z,69.50
2018-08-04T03:07:53.750Z,70.60
2018-08-04T03:10:24.498Z,69.80
2018-08-04T03:12:53.980Z,70.20
2018-08-04T03:15:23.205Z,70.20
2018-08-04T03:17:52.421Z,70.30
2018-08-04T03:20:21.532Z,70.30
2018-08-04T03:22:50.696Z,71.00
2018-08-04T03:25:19.918Z,70.00
2018-08-04T03:27:48.999Z,70.00
2018-08-04T03:30:18.084Z,70.30
2018-08-04T03:32:47.322Z,70.40
2018-08-04T03:37:45.257Z,71.30
2018-08-04T03:40:14.524Z,70.40
2018-08-04T03:47:41.129Z,70.70
2018-08-04T03:50:10.411Z,70.70
2018-08-04T03:52:39.759Z,70.70
2018-08-04T03:55:09.017Z,70.80
2018-08-04T03:57:38.013Z,71.20
2018-08-04T04:02:36.185Z,72.10
2018-08-04T04:05:05.493Z,72.30
2018-08-04T04:07:34.737Z,72.30
2018-08-04T04:10:03.919Z,72.30
2018-08-04T04:12:33.150Z,72.50
2018-08-04T04:15:02.466Z,73.00
2018-08-04T04:17:36.029Z,73.00
2018-08-04T04:27:31.370Z,73.50
2018-08-04T04:30:00.705Z,73.30
2018-08-04T04:32:30.090Z,73.20
2018-08-04T04:34:59.416Z,73.80
2018-08-04T04:37:28.614Z,73.00
2018-08-04T04:39:57.826Z,72.60
2018-08-04T04:42:26.912Z,72.60
2018-08-04T04:44:56.178Z,72.20
2018-08-04T04:47:26.745Z,72.60
2018-08-04T04:49:55.971Z,72.30
2018-08-04T04:52:25.230Z,72.30
2018-08-04T04:54:54.602Z,71.90
2018-08-04T04:57:23.951Z,71.70
2018-08-04T04:59:53.066Z,71.60
2018-08-04T05:02:22.178Z,71.60
2018-08-04T05:04:51.263Z,72.40
2018-08-04T05:07:20.391Z,71.80
2018-08-04T05:09:49.481Z,71.80
2018-08-04T05:12:19.558Z,71.80
2018-08-04T05:14:48.867Z,72.10
2018-08-04T05:17:18.269Z,73.00
2018-08-04T05:19:47.402Z,73.80
2018-08-04T05:22:16.672Z,73.70
2018-08-04T05:24:45.805Z,73.50
2018-08-04T05:29:43.806Z,73.00
2018-08-04T05:32:13.116Z,73.10
2018-08-04T05:34:42.429Z,73.00
2018-08-04T05:37:11.699Z,72.70
2018-08-04T05:39:40.919Z,72.50
2018-08-04T05:42:10.110Z,72.30
2018-08-04T05:44:40.014Z,72.60
2018-08-04T05:47:10.541Z,72.20
2018-08-04T05:49:49.392Z,72.10
2018-08-04T05:52:18.672Z,72.60
2018-08-04T05:54:47.808Z,72.20
2018-08-04T05:57:17.033Z,71.90
2018-08-04T05:59:46.664Z,71.60
2018-08-04T06:02:15.820Z,71.90
2018-08-04T06:04:46.403Z,71.80
2018-08-04T06:07:15.672Z,72.00
2018-08-04T06:09:45.320Z,72.10
2018-08-04T06:14:43.046Z,72.80
2018-08-04T06:17:12.452Z,73.40
2018-08-04T06:19:41.620Z,73.10
2018-08-04T06:22:12.389Z,73.20
2018-08-04T06:24:41.816Z,72.70
2018-08-04T06:27:10.852Z,72.60
2018-08-04T06:29:39.995Z,72.20
2018-08-04T06:32:09.372Z,71.90
2018-08-04T06:34:38.630Z,72.80
2018-08-04T06:37:07.780Z,71.80
2018-08-04T06:39:36.994Z,72.00
2018-08-04T06:42:06.437Z,72.70
2018-08-04T06:47:04.277Z,71.50
2018-08-04T06:49:33.482Z,71.10
2018-08-04T06:52:02.883Z,71.50
2018-08-04T06:54:32.119Z,72.60
2018-08-04T06:59:32.760Z,71.30
2018-08-04T07:04:30.440Z,71.40
2018-08-04T07:06:59.667Z,70.20
2018-08-04T07:09:29.385Z,71.60
2018-08-04T07:12:01.041Z,71.50
2018-08-04T07:16:58.654Z,70.00
2018-08-04T07:19:28.108Z,69.20
2018-08-04T07:21:57.433Z,69.40
2018-08-04T07:24:26.647Z,69.60
2018-08-04T07:26:55.937Z,69.60
2018-08-04T07:29:25.823Z,68.90
2018-08-04T07:31:55.329Z,68.40
2018-08-04T07:34:25.060Z,68.10
2018-08-04T07:36:54.266Z,68.30
2018-08-04T07:39:23.507Z,68.30
2018-08-04T07:41:55.618Z,67.60
2018-08-04T07:44:24.756Z,67.60
2018-08-04T07:46:53.990Z,67.10
2018-08-04T07:49:23.063Z,67.70
2018-08-04T07:51:53.191Z,67.70
2018-08-04T07:54:22.259Z,67.90
2018-08-04T07:56:51.484Z,68.50
2018-08-04T08:01:49.682Z,65.80
2018-08-04T08:04:20.933Z,66.90
2018-08-04T08:06:50.881Z,68.00
2018-08-04T08:09:21.304Z,66.90
2018-08-04T08:11:52.302Z,65.70
2018-08-04T08:14:21.530Z,65.40
2018-08-04T08:19:19.388Z,65.00
2018-08-04T08:21:48.423Z,64.70
2018-08-04T08:24:18.194Z,64.60
2018-08-04T08:26:47.129Z,64.60
2018-08-04T08:31:45.222Z,62.20
2018-08-04T08:34:14.600Z,62.50
2018-08-04T08:36:43.714Z,62.50
2018-08-04T08:39:12.835Z,61.20
2018-08-04T08:41:42.230Z,61.40
2018-08-04T08:44:11.393Z,60.20
2018-08-04T08:46:40.608Z,60.50
2018-08-04T08:49:09.735Z,59.70
2018-08-04T08:51:40.399Z,59.20
2018-08-04T08:54:10.516Z,57.90
2018-08-04T08:56:39.688Z,57.90
2018-08-04T08:59:09.005Z,56.80
2018-08-04T09:01:38.308Z,56.30
2018-08-04T09:06:36.198Z,55.50
2018-08-04T09:09:07.711Z,54.40
2018-08-04T09:11:36.901Z,53.10
2018-08-04T09:14:06.643Z,53.90
2018-08-04T09:16:36.086Z,53.00
2018-08-04T09:19:05.460Z,53.60
2018-08-04T09:21:34.556Z,52.50
2018-08-04T09:24:03.690Z,53.00
2018-08-04T09:26:32.979Z,52.90
2018-08-04T09:29:02.145Z,52.50
2018-08-04T09:31:31.342Z,52.10
2018-08-04T09:34:01.171Z,50.40
2018-08-04T09:36:30.573Z,51.50
2018-08-04T09:38:59.843Z,48.80
2018-08-04T09:41:29.189Z,50.30
2018-08-04T09:43:58.383Z,48.50
2018-08-04T09:46:27.705Z,48.30
2018-08-04T09:48:56.848Z,49.10
2018-08-04T09:51:26.114Z,47.50
2018-08-04T09:53:55.486Z,46.50
2018-08-04T09:56:24.830Z,47.30
2018-08-04T09:58:54.214Z,47.90
2018-08-04T10:01:28.415Z,46.60
2018-08-04T10:03:57.563Z,46.80
2018-08-04T10:06:28.077Z,48.60
2018-08-04T10:08:57.311Z,46.20
2018-08-04T10:11:26.602Z,44.80
2018-08-04T10:13:55.763Z,44.10
2018-08-04T10:16:25.221Z,43.00
2018-08-04T10:18:54.294Z,45.50
2018-08-04T10:21:23.412Z,44.50
2018-08-04T10:26:21.382Z,43.60
2018-08-04T10:28:51.288Z,43.50
2018-08-04T10:31:20.687Z,42.60
2018-08-04T10:33:49.818Z,43.90
2018-08-04T10:36:19.024Z,42.10
2018-08-04T10:41:18.331Z,44.20
2018-08-04T10:43:48.489Z,42.50
2018-08-04T10:46:18.074Z,44.60
2018-08-04T10:48:47.067Z,41.70
2018-08-04T10:51:16.187Z,42.60
2018-08-04T10:53:45.372Z,43.20
2018-08-04T10:56:15.493Z,40.70
2018-08-04T11:01:13.560Z,39.40
2018-08-04T11:03:42.856Z,39.60
2018-08-04T11:06:12.202Z,38.10
2018-08-04T11:08:41.246Z,40.90
2018-08-04T11:11:10.613Z,42.00
2018-08-04T11:13:39.782Z,40.50
2018-08-04T11:16:09.018Z,38.40
2018-08-04T11:18:38.258Z,37.70
2018-08-04T11:21:07.788Z,37.90
2018-08-04T11:23:37.042Z,38.40
2018-08-04T11:26:07.794Z,38.70
2018-08-04T11:28:37.194Z,37.90
2018-08-04T11:31:06.820Z,37.40
2018-08-04T11:33:36.243Z,36.90
2018-08-04T11:36:05.401Z,37.70
2018-08-04T11:38:34.505Z,37.10
2018-08-04T11:41:03.670Z,36.80
2018-08-04T11:43:32.868Z,36.50
2018-08-04T11:46:02.132Z,37.10
2018-08-04T11:48:31.096Z,36.00
2018-08-04T11:51:00.071Z,34.60
2018-08-04T11:53:28.987Z,35.90
2018-08-04T11:55:57.961Z,36.60
2018-08-04T11:58:27.822Z,37.00
2018-08-04T12:00:57.114Z,36.80
2018-08-04T12:03:26.273Z,36.10
2018-08-04T12:05:55.503Z,36.20
2018-08-04T12:08:24.701Z,36.60
2018-08-04T12:13:24.247Z,37.20
2018-08-04T12:15:53.434Z,36.90
2018-08-04T12:18:22.717Z,36.20
2018-08-04T12:20:51.681Z,37.10
2018-08-04T12:23:20.726Z,36.30
2018-08-04T12:25:50.338Z,36.80
2018-08-04T12:28:20.094Z,37.40
2018-08-04T12:30:49.148Z,39.00
2018-08-04T12:33:18.473Z,36.70
2018-08-04T12:38:16.334Z,36.50
2018-08-04T12:40:45.574Z,35.50
2018-08-04T12:43:15.065Z,37.70
2018-08-04T12:45:44.465Z,38.80
2018-08-04T12:48:14.042Z,39.50
2018-08-04T12:50:42.937Z,37.00
2018-08-04T12:53:12.279Z,35.70
2018-08-04T12:58:10.367Z,36.00
2018-08-04T13:00:39.460Z,35.50
2018-08-04T13:03:08.439Z,34.10
2018-08-04T13:05:54.208Z,35.90
2018-08-04T13:11:20.997Z,33.60
2018-08-04T13:13:51.806Z,34.90
2018-08-04T13:16:21.149Z,36.90
2018-08-04T13:18:50.552Z,34.50
2018-08-04T13:21:19.813Z,34.10
2018-08-04T13:23:49.059Z,34.10
2018-08-04T13:26:18.342Z,33.80
2018-08-04T13:28:47.592Z,34.10
2018-08-04T13:31:17.241Z,33.80
2018-08-04T13:33:46.690Z,36.20
2018-08-04T13:36:15.846Z,35.70
2018-08-04T13:38:45.331Z,33.00
2018-08-04T13:41:14.637Z,32.80
2018-08-04T13:43:43.725Z,35.30
2018-08-04T13:46:13.006Z,32.80
2018-08-04T13:48:42.212Z,34.20
2018-08-04T13:51:11.429Z,32.10
2018-08-04T13:53:40.685Z,32.60
2018-08-04T13:56:09.831Z,31.50
2018-08-04T13:58:38.989Z,32.70
2018-08-04T14:01:09.589Z,32.50
2018-08-04T14:03:38.869Z,33.50
2018-08-04T14:06:08.013Z,33.00
2018-08-04T14:08:37.440Z,34.40
2018-08-04T14:11:06.885Z,33.60
2018-08-04T14:13:36.155Z,34.50
2018-08-04T14:16:05.502Z,33.40
2018-08-04T14:18:34.706Z,33.20
2018-08-04T14:21:04.007Z,33.90
2018-08-04T14:23:32.951Z,33.30
2018-08-04T14:26:01.937Z,33.50
2018-08-04T14:28:30.997Z,34.20
2018-08-04T14:30:59.788Z,32.70
2018-08-04T14:33:29.111Z,32.90
2018-08-04T14:35:58.498Z,32.90
2018-08-04T14:38:27.602Z,33.40
2018-08-04T14:40:56.898Z,34.00
2018-08-04T14:43:26.038Z,34.10
2018-08-04T14:45:55.091Z,34.50
2018-08-04T14:48:24.365Z,34.60
2018-08-04T14:50:53.940Z,34.90
2018-08-04T14:53:23.224Z,35.20
2018-08-04T14:55:52.500Z,36.20
2018-08-04T14:58:21.622Z,38.00
2018-08-04T15:00:50.924Z,34.60
2018-08-04T15:03:21.561Z,36.00
2018-08-04T15:05:50.940Z,38.00
2018-08-04T15:08:20.161Z,36.60
2018-08-04T15:13:18.354Z,38.00
2018-08-04T15:15:47.814Z,37.20
2018-08-04T15:18:17.199Z,37.30
2018-08-04T15:20:46.678Z,38.40
2018-08-04T15:23:15.892Z,37.40
2018-08-04T15:25:45.415Z,37.40
2018-08-04T15:28:14.699Z,36.90
2018-08-04T15:30:44.087Z,37.60
2018-08-04T15:33:13.394Z,39.70
2018-08-04T15:35:42.632Z,37.20
2018-08-04T15:38:11.928Z,37.40
2018-08-04T15:40:41.336Z,37.40
2018-08-04T15:43:10.480Z,38.10
2018-08-04T15:45:39.651Z,38.40
2018-08-04T15:48:09.004Z,38.30
2018-08-04T15:50:38.330Z,38.00
2018-08-04T15:53:07.730Z,38.20
2018-08-04T15:55:36.832Z,38.50
2018-08-04T15:58:06.023Z,38.10
2018-08-04T16:00:35.344Z,38.40
2018-08-04T16:03:04.515Z,38.20
2018-08-04T16:05:33.749Z,38.70
2018-08-04T16:08:03.188Z,38.50
2018-08-04T16:10:32.513Z,38.50
2018-08-04T16:13:01.858Z,39.00
2018-08-04T16:18:00.795Z,39.90
2018-08-04T16:20:30.044Z,40.40
2018-08-04T16:22:59.460Z,41.50
2018-08-04T16:25:28.596Z,41.50
2018-08-04T16:27:57.801Z,41.90
2018-08-04T16:30:26.963Z,42.20
2018-08-04T16:32:56.204Z,42.30
2018-08-04T16:35:25.255Z,42.90
2018-08-04T16:37:54.205Z,43.80
2018-08-04T16:42:52.367Z,43.80
2018-08-04T16:45:21.491Z,44.60
2018-08-04T16:47:50.587Z,44.80
2018-08-04T16:50:19.752Z,45.10
2018-08-04T16:52:48.931Z,46.00
2018-08-04T16:55:18.286Z,45.90
2018-08-04T16:57:47.463Z,46.60
2018-08-04T17:00:16.797Z,47.80
2018-08-04T17:02:45.890Z,47.50
2018-08-04T17:07:44.824Z,48.80
2018-08-04T17:10:14.123Z,48.10
2018-08-04T17:12:43.406Z,48.40
2018-08-04T17:15:12.531Z,48.60
2018-08-04T17:22:39.066Z,50.50
2018-08-04T17:25:08.302Z,50.60
2018-08-04T17:27:37.801Z,51.00
2018-08-04T17:30:07.285Z,51.50
2018-08-04T17:32:36.524Z,52.00
2018-08-04T17:35:05.914Z,51.90
2018-08-04T17:37:35.188Z,52.60
2018-08-04T17:40:04.252Z,52.40
2018-08-04T17:42:33.459Z,52.70
2018-08-04T17:45:02.834Z,53.00
2018-08-04T17:47:32.477Z,53.20
2018-08-04T17:50:01.842Z,53.30
2018-08-04T17:52:31.043Z,53.90
2018-08-04T17:55:00.259Z,53.80
2018-08-04T17:57:29.537Z,54.10
2018-08-04T17:59:58.825Z,54.00
2018-08-04T18:02:28.063Z,54.10
2018-08-04T18:04:57.342Z,54.40
2018-08-04T18:07:27.690Z,54.50
2018-08-04T18:09:56.893Z,54.80
2018-08-04T18:12:25.912Z,55.10
2018-08-04T18:14:55.180Z,55.30
2018-08-04T18:17:24.465Z,55.80
2018-08-04T18:19:53.601Z,55.90
2018-08-04T18:22:22.689Z,56.70
2018-08-04T18:24:52.062Z,56.60
2018-08-04T18:27:21.331Z,56.70
2018-08-04T18:32:19.385Z,57.60
2018-08-04T18:34:48.738Z,58.20
2018-08-04T18:37:18.114Z,58.80
2018-08-04T18:39:47.310Z,58.80
2018-08-04T18:42:16.640Z,59.20
2018-08-04T18:44:46.055Z,59.50
2018-08-04T18:47:15.300Z,59.70
2018-08-04T18:49:44.500Z,60.30
2018-08-04T18:52:13.543Z,60.20
2018-08-04T18:54:42.713Z,60.20
2018-08-04T18:57:11.991Z,61.00
2018-08-04T18:59:41.238Z,61.50
2018-08-04T19:02:10.412Z,61.70
2018-08-04T19:04:39.841Z,62.10
2018-08-04T19:07:09.236Z,62.10
2018-08-04T19:09:40.103Z,62.80
2018-08-04T19:14:38.271Z,63.20
2018-08-04T19:17:07.517Z,63.20
2018-08-04T19:19:36.631Z,63.20
2018-08-04T19:22:05.927Z,63.60
2018-08-04T19:24:35.155Z,63.70
2018-08-04T19:27:04.312Z,64.80
2018-08-04T19:29:33.433Z,64.10
2018-08-04T19:32:02.708Z,64.20
2018-08-04T19:34:31.910Z,63.90
2018-08-04T19:37:01.411Z,64.60
2018-08-04T19:39:33.957Z,63.70
2018-08-04T19:42:03.269Z,64.30
2018-08-04T19:44:32.404Z,64.30
2018-08-04T19:49:30.084Z,65.20
2018-08-04T19:51:59.493Z,64.70
2018-08-04T19:54:28.776Z,64.50
2018-08-04T19:56:58.247Z,66.10
2018-08-04T19:59:27.395Z,66.40
2018-08-04T20:01:56.581Z,67.50
2018-08-04T20:04:25.712Z,67.00
2018-08-04T20:06:54.981Z,66.70
2018-08-04T20:09:24.096Z,67.30
2018-08-04T20:11:53.302Z,67.10
2018-08-04T20:14:22.357Z,66.90
2018-08-04T20:16:51.705Z,67.40
2018-08-04T20:19:21.029Z,67.60
2018-08-04T20:21:50.438Z,68.10
2018-08-04T20:24:19.732Z,67.60
2018-08-04T20:26:48.883Z,67.80
2018-08-04T20:29:18.174Z,68.80
2018-08-04T20:31:47.463Z,67.90
2018-08-04T20:34:16.633Z,67.90
2018-08-04T20:36:45.730Z,68.90
2018-08-04T20:39:14.927Z,68.80
2018-08-04T20:41:44.138Z,68.80
2018-08-04T20:44:13.348Z,68.70
2018-08-04T20:46:42.584Z,69.60
2018-08-04T20:49:11.958Z,70.30
2018-08-04T20:51:41.203Z,70.40
2018-08-04T20:54:10.367Z,70.90
2018-08-04T20:56:39.655Z,70.20
2018-08-04T20:59:08.549Z,70.30
2018-08-04T21:01:58.766Z,70.20
2018-08-04T21:04:29.034Z,70.30
2018-08-04T21:06:58.324Z,70.90
2018-08-04T21:09:28.023Z,71.10
2018-08-04T21:11:57.779Z,71.50
2018-08-04T21:14:27.819Z,71.00
2018-08-04T21:16:57.799Z,71.50
2018-08-04T21:19:27.281Z,71.40
2018-08-04T21:21:56.512Z,72.50
2018-08-04T21:24:26.508Z,72.10
2018-08-04T21:26:56.193Z,72.40
2018-08-04T21:31:54.370Z,72.60
2018-08-04T21:34:23.360Z,72.50
2018-08-04T21:41:50.334Z,72.90
2018-08-04T21:44:19.650Z,72.70
2018-08-04T21:46:50.909Z,73.10
2018-08-04T21:49:20.588Z,73.40
2018-08-04T21:51:50.873Z,73.70
2018-08-04T21:54:20.473Z,73.70
2018-08-04T21:56:49.768Z,73.80
2018-08-04T22:01:55.784Z,74.10
2018-08-04T22:04:25.415Z,74.80
2018-08-04T22:08:05.737Z,74.40
2018-08-04T22:10:36.609Z,74.30
2018-08-04T22:13:05.896Z,74.60
2018-08-04T22:15:35.101Z,74.80
2018-08-04T22:18:04.410Z,75.10
2018-08-04T22:20:33.637Z,74.90
2018-08-04T22:23:02.830Z,74.90
2018-08-04T22:25:32.210Z,75.70
2018-08-04T22:28:01.487Z,75.40
2018-08-04T22:30:30.845Z,75.10
2018-08-04T22:33:00.043Z,75.00
2018-08-04T22:35:29.263Z,75.00
2018-08-04T22:37:58.512Z,75.20
2018-08-04T22:40:27.853Z,75.40
2018-08-04T22:42:57.066Z,75.40
2018-08-04T22:45:46.733Z,75.90
2018-08-04T22:48:15.988Z,76.40
2018-08-04T22:50:45.384Z,76.20
2018-08-04T22:53:15.034Z,76.40
2018-08-04T22:55:45.065Z,76.60
2018-08-04T22:58:14.365Z,76.80
2018-08-04T23:00:44.537Z,76.70
2018-08-04T23:03:14.286Z,77.30
2018-08-04T23:05:43.490Z,77.30
2018-08-04T23:08:13.283Z,77.20
2018-08-04T23:10:44.536Z,77.30
2018-08-04T23:13:14.235Z,77.30
2018-08-04T23:15:43.489Z,77.30
2018-08-04T23:18:12.862Z,77.90
2018-08-04T23:20:42.419Z,78.40
2018-08-04T23:23:12.581Z,78.30
2018-08-04T23:25:41.932Z,79.40
2018-08-04T23:28:11.339Z,79.10
2018-08-04T23:30:40.645Z,78.70
2018-08-04T23:33:09.925Z,80.10
2018-08-04T23:35:39.366Z,79.40
2018-08-04T23:38:08.439Z,79.30
2018-08-04T23:40:37.665Z,79.20
2018-08-04T23:43:06.954Z,80.10
2018-08-04T23:45:36.579Z,81.00
2018-08-04T23:48:05.680Z,80.80
2018-08-04T23:50:34.953Z,81.50
2018-08-04T23:53:04.233Z,80.90
2018-08-04T23:55:33.816Z,80.50
2018-08-04T23:58:02.950Z,81.00
